createdAt,value
2018-05-07T00:02:06.406Z,1023.02
2018-05-07T00:07:01.435Z,1022.97
2018-05-07T00:22:03.519Z,1022.92
2018-05-07T00:27:01.399Z,1022.92
2018-05-07T00:37:06.395Z,1022.85
2018-05-07T00:42:02.479Z,1022.85
2018-05-07T00:47:01.401Z,1022.83
2018-05-07T00:52:05.526Z,1022.83
2018-05-07T00:57:01.458Z,1022.89
2018-05-07T01:02:03.462Z,1022.89
2018-05-07T01:07:01.458Z,1022.97
2018-05-07T01:17:04.592Z,1023.0999999999999
2018-05-07T01:27:06.370Z,1023.04
2018-05-07T01:37:11.427Z,1023.1300000000001
2018-05-07T01:47:01.444Z,1022.98
2018-05-07T01:57:04.531Z,1022.94
2018-05-07T02:08:03.517Z,1022.94
2018-05-07T02:23:01.485Z,1023.02
2018-05-07T02:33:01.549Z,1023.0999999999999
2018-05-07T02:38:01.612Z,1023.0899999999999
2018-05-07T02:43:01.507Z,1023.0899999999999
2018-05-07T02:48:06.549Z,1023.0999999999999
2018-05-07T02:58:01.543Z,1022.96
2018-05-07T03:13:01.461Z,1023.02
2018-05-07T03:28:01.342Z,1022.97
2018-05-07T03:43:01.398Z,1022.92
2018-05-07T03:58:01.453Z,1022.82
2018-05-07T04:13:01.518Z,1022.81
2018-05-07T04:28:01.265Z,1022.77
2018-05-07T04:38:01.469Z,1022.72
2018-05-07T04:43:06.419Z,1022.72
2018-05-07T04:48:07.484Z,1022.67
2018-05-07T04:53:06.424Z,1022.67
2018-05-07T04:58:01.408Z,1022.57
2018-05-07T05:03:01.559Z,1022.57
2018-05-07T05:08:01.417Z,1022.65
2018-05-07T05:13:01.427Z,1022.65
2018-05-07T05:18:01.411Z,1022.65
2018-05-07T05:23:01.425Z,1022.65
2018-05-07T05:28:01.627Z,1022.64
2018-05-07T05:33:02.450Z,1022.64
2018-05-07T05:38:01.561Z,1022.59
2018-05-07T05:43:01.489Z,1022.59
2018-05-07T05:48:01.535Z,1022.5
2018-05-07T05:53:01.310Z,1022.5
2018-05-07T05:58:01.269Z,1022.51
2018-05-07T06:03:01.284Z,1022.51
2018-05-07T06:08:01.451Z,1022.47
2018-05-07T06:13:06.459Z,1022.47
2018-05-07T06:18:01.504Z,1022.39
2018-05-07T06:23:06.437Z,1022.39
2018-05-07T06:28:01.459Z,1022.41
2018-05-07T06:33:01.518Z,1022.41
2018-05-07T06:38:01.464Z,1022.48
2018-05-07T06:43:11.471Z,1022.48
2018-05-07T06:48:01.441Z,1022.38
2018-05-07T06:53:04.578Z,1022.38
2018-05-07T06:58:02.499Z,1022.39
2018-05-07T07:03:01.611Z,1022.39
2018-05-07T07:08:01.724Z,1022.4
2018-05-07T07:13:06.589Z,1022.4
2018-05-07T07:18:01.476Z,1022.32
2018-05-07T07:23:01.535Z,1022.32
2018-05-07T07:28:01.693Z,1022.4
2018-05-07T07:33:06.525Z,1022.4
2018-05-07T07:38:01.482Z,1022.43
2018-05-07T07:43:05.595Z,1022.43
2018-05-07T07:48:01.496Z,1022.4
2018-05-07T07:53:10.281Z,1022.4
2018-05-07T07:58:01.487Z,1022.39
2018-05-07T08:03:01.430Z,1022.39
2018-05-07T08:08:01.461Z,1022.39
2018-05-07T08:13:06.552Z,1022.39
2018-05-07T08:18:01.430Z,1022.3
2018-05-07T08:23:10.383Z,1022.3
2018-05-07T08:28:01.470Z,1022.4
2018-05-07T08:33:06.451Z,1022.4
2018-05-07T08:38:01.602Z,1022.34
2018-05-07T08:43:02.462Z,1022.34
2018-05-07T08:48:06.409Z,1022.27
2018-05-07T08:53:04.897Z,1022.27
2018-05-07T08:58:01.468Z,1022.2
2018-05-07T09:03:01.486Z,1022.2
2018-05-07T09:08:01.559Z,1022.17
2018-05-07T09:13:01.648Z,1022.17
2018-05-07T09:18:01.512Z,1022.05
2018-05-07T09:28:02.524Z,1021.95
2018-05-07T09:33:01.445Z,1021.95
2018-05-07T09:38:01.433Z,1021.87
2018-05-07T09:43:01.729Z,1021.87
2018-05-07T09:53:02.508Z,1021.75
2018-05-07T09:58:02.455Z,1021.58
2018-05-07T10:08:01.461Z,1021.59
2018-05-07T10:13:01.531Z,1021.59
2018-05-07T10:18:01.513Z,1021.45
2018-05-07T10:23:03.510Z,1021.45
2018-05-07T10:28:01.424Z,1021.39
2018-05-07T10:33:01.435Z,1021.39
2018-05-07T10:38:01.773Z,1021.34
2018-05-07T10:43:01.498Z,1021.34
2018-05-07T10:59:07.505Z,1021.19
2018-05-07T11:04:01.485Z,1021.19
2018-05-07T11:09:06.445Z,1021.07
2018-05-07T11:14:01.444Z,1021.07
2018-05-07T11:19:02.444Z,1020.92
2018-05-07T11:24:01.483Z,1020.92
2018-05-07T11:39:02.626Z,1020.92
2018-05-07T11:44:02.473Z,1020.92
2018-05-07T11:49:05.612Z,1020.88
2018-05-07T11:59:01.510Z,1020.86
2018-05-07T12:09:04.761Z,1020.89
2018-05-07T12:24:03.518Z,1020.84
2018-05-07T12:29:01.908Z,1020.76
2018-05-07T12:34:01.481Z,1020.76
2018-05-07T12:45:06.618Z,1020.68
2018-05-07T12:50:03.479Z,1020.53
2018-05-07T13:00:01.637Z,1020.49
2018-05-07T13:05:01.508Z,1020.49
2018-05-07T13:10:01.664Z,1020.37
2018-05-07T13:15:01.980Z,1020.37
2018-05-07T13:25:06.464Z,1020.31
2018-05-07T13:30:02.614Z,1020.27
2018-05-07T13:45:01.556Z,1020.22
2018-05-07T13:55:04.577Z,1020.07
2018-05-07T14:00:01.899Z,1019.91
2018-05-07T14:05:01.450Z,1019.91
2018-05-07T14:15:06.660Z,1019.85
2018-05-07T14:25:01.593Z,1019.71
2018-05-07T14:31:01.411Z,1019.73
2018-05-07T14:46:01.326Z,1019.66
2018-05-07T14:56:06.500Z,1019.53
2018-05-07T15:06:03.487Z,1019.54
2018-05-07T15:11:02.495Z,1019.49
2018-05-07T15:26:01.482Z,1019.32
2018-05-07T15:31:01.431Z,1019.28
2018-05-07T15:41:04.609Z,1019.24
2018-05-07T15:46:01.448Z,1019.24
2018-05-07T15:51:01.422Z,1019.17
2018-05-07T16:01:01.273Z,1019.21
2018-05-07T16:06:01.425Z,1019.21
2018-05-07T16:11:02.497Z,1019.22
2018-05-07T16:16:01.418Z,1019.22
2018-05-07T16:21:01.626Z,1019.14
2018-05-07T16:26:01.892Z,1019.14
2018-05-07T16:31:02.173Z,1019.01
2018-05-07T16:36:01.630Z,1019.01
2018-05-07T16:41:06.626Z,1018.92
2018-05-07T16:46:01.821Z,1018.92
2018-05-07T16:51:01.754Z,1018.81
2018-05-07T17:01:01.571Z,1018.79
2018-05-07T17:06:01.554Z,1018.79
2018-05-07T17:16:01.697Z,1018.71
2018-05-07T17:21:06.593Z,1018.63
2018-05-07T17:26:01.551Z,1018.63
2018-05-07T17:31:01.575Z,1018.6
2018-05-07T17:36:01.810Z,1018.6
2018-05-07T17:41:07.613Z,1018.49
2018-05-07T17:46:02.709Z,1018.49
2018-05-07T17:51:01.559Z,1018.53
2018-05-07T17:56:01.682Z,1018.53
2018-05-07T18:01:01.630Z,1018.53
2018-05-07T18:06:01.618Z,1018.53
2018-05-07T18:11:01.606Z,1018.57
2018-05-07T18:16:01.563Z,1018.57
2018-05-07T18:21:01.610Z,1018.65
2018-05-07T18:26:01.603Z,1018.65
2018-05-07T18:31:01.590Z,1018.56
2018-05-07T18:36:02.673Z,1018.56
2018-05-07T18:41:01.563Z,1018.51
2018-05-07T18:46:01.678Z,1018.51
2018-05-07T18:51:01.613Z,1018.49
2018-05-07T19:01:01.592Z,1018.56
2018-05-07T19:06:01.602Z,1018.56
2018-05-07T19:11:01.873Z,1018.6
2018-05-07T19:16:01.668Z,1018.6
2018-05-07T19:21:01.603Z,1018.61
2018-05-07T19:26:01.594Z,1018.61
2018-05-07T19:32:02.602Z,1018.56
2018-05-07T19:37:01.549Z,1018.62
2018-05-07T19:42:01.590Z,1018.62
2018-05-07T19:47:01.584Z,1018.56
2018-05-07T19:52:02.780Z,1018.56
2018-05-07T19:57:01.600Z,1018.6
2018-05-07T20:02:01.560Z,1018.6
2018-05-07T20:07:01.686Z,1018.7
2018-05-07T20:12:01.778Z,1018.7
2018-05-07T20:17:01.709Z,1018.67
2018-05-07T20:27:01.741Z,1018.64
2018-05-07T20:32:01.652Z,1018.64
2018-05-07T20:42:01.509Z,1018.54
2018-05-07T20:57:01.521Z,1018.48
2018-05-07T21:12:03.589Z,1018.38
2018-05-07T21:17:01.654Z,1018.31
2018-05-07T21:27:01.554Z,1018.27
2018-05-07T21:32:01.474Z,1018.27
2018-05-07T21:42:03.568Z,1018.24
2018-05-07T21:57:01.949Z,1018.27
2018-05-07T22:12:01.529Z,1018.24
2018-05-07T22:17:01.442Z,1018.22
2018-05-07T22:27:02.453Z,1018.15
2018-05-07T22:32:06.577Z,1018.15
2018-05-07T22:37:01.626Z,1018.13
2018-05-07T22:47:05.653Z,1018.14
2018-05-07T22:52:01.828Z,1018.14
2018-05-07T23:07:01.511Z,1017.93
2018-05-07T23:22:01.500Z,1017.93
2018-05-07T23:37:06.442Z,1017.81
2018-05-07T23:47:03.471Z,1017.68
2018-05-07T23:57:01.608Z,1017.66
